• Join FlightAware (Why Join?)
  • Login
  • US Flag 
04:25AM EDT


 

Airport Tracker/Info


-or-


 

Live Flight TrackerFlight Track Log ✈ SWA2624 ✈ 25-Apr-2013 ✈ KABQ - KLAS

Flight Track Log - Related Links

Times and Time Zones

All times are in EDT time to prevent confusion due to time zone crossing. See the SWA2624 flight status page for this flight to view local times or setup timezone preferences in your user account.

Time Position Orientation Groundspeed Altitude Reporting Facility
EDT Latitude Longitude Course Direction KTS MPH feet Rate Location/Type
12:36AM 35.0356 -106.5581 120° Southeast 198 228 6,600  Level Albuquerque Center
12:37AM 34.9672 -106.5575 180° South 267 307 9,400 2,640 Climbing Albuquerque Center
12:38AM 34.9617 -106.6286 265° West 255 293 12,100 2,340 Climbing Albuquerque Center
12:39AM 35.0011 -106.7247 297° West 309 356 14,200 2,280 Climbing Albuquerque Center
12:40AM 35.0442 -106.8353 295° West 347 399 16,800 3,060 Climbing Albuquerque Center
12:41AM 35.0978 -106.9683 296° West 378 435 20,500 3,720 Climbing Albuquerque Center
12:42AM 35.1389 -107.0717 296° West 351 404 24,400 2,460 Climbing Albuquerque Center
12:43AM 35.1836 -107.1883 295° West 382 440 25,600 1,440 Climbing Albuquerque Center
12:44AM 35.2175 -107.3206 287° West 407 468 27,400 1,980 Climbing Albuquerque Center
12:45AM 35.2336 -107.4564 278° West 403 464 29,600 2,220 Climbing Albuquerque Center
12:46AM 35.2528 -107.6092 279° West 399 459 32,000 2,280 Climbing Albuquerque Center
12:47AM 35.2672 -107.7356 278° West 394 453 34,300 1,920 Climbing Albuquerque Center
12:48AM 35.2825 -107.8589 279° West 386 444 36,000 1,500 Climbing Albuquerque Center
12:49AM 35.3006 -107.9997 279° West 378 435 37,400 1,020 Climbing Albuquerque Center
12:50AM 35.3147 -108.1256 278° West 383 441 38,100 720 Climbing Albuquerque Center
12:51AM 35.3300 -108.2536 278° West 392 451 38,900 900 Climbing Albuquerque Center
12:52AM 35.3500 -108.4039 279° West 397 457 40,000 540 Climbing Albuquerque Center
12:53AM 35.3850 -108.5286 289° West 401 461 40,000  Level Albuquerque Center
12:54AM 35.4181 -108.6550 288° West 405 466 40,000  Level Albuquerque Center
12:55AM 35.4583 -108.8036 288° West 408 470 40,000  Level Albuquerque Center
12:56AM 35.4803 -108.9339 282° West 405 466 40,000  Level Albuquerque Center
12:57AM 35.4869 -109.0636 274° West 398 458 40,000  Level Albuquerque Center
12:58AM 35.4936 -109.1947 274° West 399 459 40,000  Level Albuquerque Center
12:59AM 35.5006 -109.3492 273° West 401 461 40,000  Level Albuquerque Center
01:00AM 35.5058 -109.4806 273° West 403 464 40,000  Level Albuquerque Center
01:02AM 35.5119 -109.6094 273° West 400 460 40,000  Level Albuquerque Center
01:03AM 35.5175 -109.7622 273° West 398 458 40,000  Level Albuquerque Center
01:04AM 35.5231 -109.8928 273° West 398 458 40,000  Level Albuquerque Center
01:05AM 35.5272 -110.0244 272° West 402 463 40,000  Level Albuquerque Center
01:06AM 35.5333 -110.1767 273° West 401 461 40,000  Level Albuquerque Center
01:07AM 35.5364 -110.3081 272° West 402 463 40,000  Level Albuquerque Center
01:08AM 35.5425 -110.4400 273° West 403 464 40,000  Level Albuquerque Center
01:09AM 35.5475 -110.5928 272° West 402 463 40,000  Level Albuquerque Center
01:10AM 35.5525 -110.7258 273° West 405 466 40,000  Level Albuquerque Center
01:11AM 35.5583 -110.8578 273° West 405 466 40,000 -420 Level Albuquerque Center
01:12AM 35.5639 -111.0114 273° West 403 464 39,200 -960 Descending Albuquerque Center
01:13AM 35.5681 -111.1431 272° West 403 464 38,100 -1,920 Descending Albuquerque Center
01:14AM 35.5722 -111.2744 272° West 403 464 35,400 -3,300 Descending Albuquerque Center
01:15AM 35.5783 -111.4300 273° West 406 467 31,500 -2,700 Descending Albuquerque Center
01:16AM 35.5806 -111.5522 271° West 416 479 30,000 -780 Descending Albuquerque Center
01:17AM 35.5853 -111.6969 272° West 422 486 30,000  Level Albuquerque Center
01:18AM 35.5900 -111.8408 272° West 425 489 30,000  Level Albuquerque Center
01:19AM 35.5936 -111.9850 272° West 425 489 30,000  Level Albuquerque Center
01:20AM 35.5978 -112.1292 272° West 425 489 30,000  Level Los Angeles Center
01:21AM 35.6014 -112.2750 272° West 428 493 30,000  Level Los Angeles Center
01:22AM 35.6053 -112.4197 272° West 429 494 30,000  Level Los Angeles Center
01:23AM 35.6081 -112.5639 271° West 427 491 30,000  Level Los Angeles Center
01:24AM 35.6108 -112.7169 271° West 426 490 30,000  Level Los Angeles Center
01:25AM 35.6136 -112.8608 271° West 423 487 30,000  Level Los Angeles Center
01:26AM 35.6164 -113.0142 271° West 419 482 30,000  Level Los Angeles Center
01:27AM 35.6183 -113.1569 271° West 418 481 30,000  Level Los Angeles Center
01:28AM 35.6217 -113.3014 272° West 420 483 30,000 -840 Level Los Angeles Center
01:29AM 35.6228 -113.4447 271° West 426 490 28,300 -2,220 Descending Los Angeles Center
01:30AM 35.6289 -113.5867 273° West 422 486 25,600 -2,640 Descending Los Angeles Center
01:31AM 35.6514 -113.7253 281° West 419 482 22,900 -2,640 Descending Los Angeles Center
01:32AM 35.6697 -113.8619 279° West 411 473 20,200 -2,760 Descending Los Angeles Center
01:33AM 35.6922 -114.0192 280° West 391 450 17,400 -2,580 Descending Los Angeles Center
01:34AM 35.7097 -114.1419 280° West 372 428 15,000 -2,400 Descending Los Angeles Center
01:35AM 35.7264 -114.2703 279° West 361 415 12,600 -1,740 Descending Los Angeles Center
01:35AM 35.7367 -114.3383 281° West 345 397 12,200 -600 Descending Los Angeles Center
01:36AM 35.7447 -114.3786 284° West 326 375 12,000 -300 Descending Los Angeles Center
01:36AM 35.7739 -114.3972 333° Northwest 301 346 12,000  Level Los Angeles Center
01:37AM 35.8189 -114.4189 339° North 293 337 12,000 60 Level Los Angeles Center
01:37AM 35.8469 -114.4336 337° Northwest 284 327 12,100 -240 Climbing Los Angeles Center
01:38AM 35.8900 -114.4525 340° North 280 322 11,800 -900 Descending Los Angeles Center
01:38AM 35.9261 -114.4681 341° North 281 323 11,200 -1,200 Descending Los Angeles Center
01:39AM 35.9625 -114.4858 338° Northwest 278 320 10,600 -900 Descending Los Angeles Center
01:39AM 35.9967 -114.5028 338° Northwest 270 311 10,300 -540 Descending Los Angeles Center
01:40AM 36.0314 -114.5197 338° Northwest 272 313 10,100 -300 Descending Los Angeles Center
01:40AM 36.0450 -114.5556 295° West 242 278 10,000 -240 Descending Los Angeles Center
01:41AM 36.0508 -114.5983 280° West 250 288 9,900 -720 Descending Los Angeles Center
01:41AM 36.0592 -114.6386 284° West 242 278 9,300 -1,020 Descending Los Angeles Center
01:42AM 36.0622 -114.6783 275° West 239 275 8,900 -900 Descending Los Angeles Center
01:42AM 36.0636 -114.7172 273° West 221 254 8,400 -1,020 Descending Los Angeles Center
01:43AM 36.0672 -114.7533 277° West 226 260 7,900 -1,020 Descending Los Angeles Center
01:43AM 36.0692 -114.8006 273° West 224 258 7,300 -840 Descending Los Angeles Center
01:44AM 36.0717 -114.8278 276° West 221 254 7,100 -840 Descending Los Angeles Center
01:44AM 36.0744 -114.8733 274° West 210 242 6,500 -1,500 Descending Los Angeles Center
01:45AM 36.0758 -114.9147 272° West 215 247 5,600 -1,500 Descending Los Angeles Center
01:45AM 36.0733 -114.9481 265° West 209 241 5,000 -1,200 Descending Los Angeles Center
01:46AM 36.0742 -114.9839 272° West 210 242 4,400 -1,020 Descending Los Angeles Center
01:46AM 36.0739 -115.0092 269° West 174 200 4,000 -900 Descending Los Angeles Center
01:47AM 36.0742 -115.0408 271° West 190 219 3,500 -900 Descending Los Angeles Center
01:48AM 36.0731 -115.0653 267° West 160 184 3,100 -840 Descending Los Angeles Center
01:48AM 36.0739 -115.0900 272° West 167 192 2,700 -840 Descending Los Angeles Center
01:49AM 36.0722 -115.1108 264° West 131 151 2,300 -720 Descending Los Angeles Center
01:49AM 36.0739 -115.1347 275° West 147 169 2,000 -540 Descending Los Angeles Center
01:51AM 36.0667 -115.1500 270° West  Level FlightAware Approximate